Latest Coastal Weather Observations for Robe Airport

IDV60701

Issued at 7:51 pm EST Tuesday 4 August 2015 (issued every 10 minutes, with the page automatically refreshed every 10 minutes)

About coastal observations | Map of coastal stations | Coastal observations for VIC | Marine services | Other Formats
Station Details ID: 026105 Name: ROBE AIRFIELD Lat: -37.18 Lon: 139.81 Height: 3.0 m
Data from the previous 72 hours. | See also: Recent months at Robe Airport
Date/Time
EST
Temp

°C
Wind Pressure Rain
since 9am
mm
Weather Cloud Vis
km
Sea
Height
m
Swell
Dir
 
Speed
knots
Gust
knots
hPa Trend Height
m
Period
s
Dir
04/07:30pm 11.4 WNW 13 19 1019.0 - 0.8 - - - - - - -
04/07:16pm 11.3 WNW 15 27 1019.2 - 0.8 - - - - - - -
04/07:00pm 11.1 WNW 12 21 1019.2 - 0.8 - - - - - - -
04/06:30pm 11.2 W 12 21 1019.6 - 0.8 Recent precip. - - - - - -
04/06:00pm 11.8 WNW 13 19 1019.6 - 0.6 - - - - - - -
04/05:30pm 11.7 W 10 21 1019.8 - 0.6 - - - - - - -
04/05:00pm 11.8 W 12 21 1020.2 - 0.6 - - - - - - -
04/04:30pm 12.0 W 12 18 1020.5 - 0.6 - - - - - - -
04/04:00pm 12.2 W 11 19 1020.8 - 0.6 - - - - - - -
04/03:30pm 12.0 W 13 20 1021.1 - 0.6 - - - - - - -
04/03:00pm 11.4 W 12 19 1021.3 - 0.6 - - - - - - -
04/02:30pm 13.0 WNW 9 18 1021.4 - 0.6 - - - - - - -
04/02:00pm 12.3 W 14 22 1022.0 - 0.4 - - - - - - -
04/01:30pm 12.7 W 10 15 1022.4 - 0.4 - - - - - - -
04/01:00pm 13.1 W 11 16 1022.8 - 0.4 - - - - - - -
04/12:30pm 12.3 W 11 17 1023.5 - 0.4 - - - - - - -
04/12:00pm 12.2 W 11 17 1023.9 - 0.4 - - - - - - -
04/11:30am 11.3 WSW 6 11 1024.3 - 0.4 - - - - - - -
04/11:00am 10.8 W 10 15 1024.6 - 0.4 - - - - - - -
04/10:30am 9.7 WSW 7 13 1024.8 - 0.4 - - - - - - -
04/10:00am 9.8 WSW 9 17 1024.9 - 0.2 - - - - - - -
04/09:30am 10.6 W 4 7 1024.7 - 2.4 - - - - - - -
04/09:00am 9.4 WSW 4 7 1024.8 - 2.4 - - - - - - -
04/08:30am 8.3 WNW 3 4 1024.8 - 2.4 - - - - - - -
04/08:00am 8.1 WSW 4 7 1024.7 - 2.4 - - - - - - -
04/07:30am 6.9 WNW 3 5 1024.7 - 1.6 - - - - - - -
04/07:00am 8.2 W 8 13 1024.7 - 1.6 - - - - - - -
04/06:30am 8.0 W 4 8 1024.9 - 1.6 Recent precip. - - - - - -
04/06:00am 8.5 WSW 8 15 1024.9 - 1.4 - - - - - - -
04/05:30am 8.4 SSW 5 9 1024.8 - 1.0 - - - - - - -
04/05:00am 8.7 W 4 7 1024.7 - 1.0 - - - - - - -
04/04:30am 7.7 WSW 5 7 1024.9 - 0.8 - - - - - - -
04/04:00am 7.8 W 7 12 1024.9 - 0.8 - - - - - - -
04/03:30am 7.7 W 4 5 1025.0 - 0.8 - - - - - - -
04/03:00am 8.2 WSW 6 10 1025.2 - 0.8 - - - - - - -
04/02:30am 8.1 WSW 4 7 1025.2 - 0.8 - - - - - - -
04/02:00am 7.4 SW 3 5 1025.3 - 0.8 - - - - - - -
04/01:30am 7.2 SW 4 6 1025.4 - 0.8 - - - - - - -
04/01:00am 5.2 SSW 2 3 1025.5 - 0.8 - - - - - - -
04/12:30am 5.6 CALM 0 1 1025.7 - 0.8 Recent precip. - - - - - -
04/12:00am 6.7 SSW 5 7 1025.9 - 0.6 - - - - - - -
 
Date/Time
EST
Temp

°C
Wind Pressure Rain
since 9am
mm
Weather Cloud Vis
km
Sea
Height
m
Swell
Dir
 
Speed
knots
Gust
knots
hPa Trend Height
m
Period
s
Dir
03/11:30pm 7.0 SW 3 4 1025.8 - 0.6 - - - - - - -
03/11:00pm 6.1 WSW 2 4 1025.8 - 0.6 - - - - - - -
03/10:30pm 7.1 W 4 7 1025.9 - 0.6 - - - - - - -
03/10:00pm 5.2 CALM 0 0 1026.1 - 0.6 - - - - - - -
03/09:30pm 6.2 NE 2 3 1026.2 - 0.6 Recent precip. - - - - - -
03/09:00pm 6.2 ESE 2 3 1026.2 - 0.4 - - - - - - -
03/08:30pm 5.7 CALM 0 0 1026.2 - 0.4 - - - - - - -
03/08:00pm 5.1 CALM 0 0 1026.2 - 0.4 - - - - - - -
03/07:30pm 6.5 CALM 0 1 1026.0 - 0.4 - - - - - - -
03/07:00pm 7.5 SSW 5 8 1025.8 - 0.4 - - - - - - -
03/06:30pm 6.4 SSE 1 3 1025.6 - 0.4 - - - - - - -
03/06:00pm 7.2 SSE 1 2 1025.1 - 0.4 - - - - - - -
03/05:30pm 8.4 SSE 4 8 1024.9 - 0.4 - - - - - - -
03/05:00pm 8.8 SSE 6 9 1024.8 - 0.4 - - - - - - -
03/04:30pm 9.8 S 9 11 1024.4 - 0.4 - - - - - - -
03/04:00pm 10.4 S 10 13 1024.2 - 0.4 - - - - - - -
03/03:30pm 10.9 SSW 9 13 1024.0 - 0.4 - - - - - - -
03/03:00pm 11.0 SSW 13 17 1023.8 - 0.4 - - - - - - -
03/02:30pm 10.5 SSW 13 18 1023.6 - 0.4 - - - - - - -
03/02:00pm 10.5 SSW 12 18 1023.6 - 0.4 - - - - - - -
03/01:30pm 11.0 SW 11 18 1023.5 - 0.4 - - - - - - -
03/01:00pm 9.7 SSW 16 24 1023.7 - 0.2 - - - - - - -
03/12:30pm 11.3 SW 13 20 1023.7 - 0.2 - - - - - - -
03/12:00pm 10.4 S 17 26 1023.9 - 0.2 - - - - - - -
03/11:50am 10.6 SSW 15 26 1023.7 - 0.2 - - - - - - -
03/11:30am 11.4 SSW 14 20 1023.6 - 0.2 - - - - - - -
03/11:00am 11.3 SSW 15 23 1023.5 - 0.2 - - - - - - -
03/10:30am 9.9 SSW 14 21 1023.3 - 0.2 - - - - - - -
03/10:02am 9.6 SW 15 26 1022.7 - 0.0 - - - - - - -
03/10:00am 9.6 SW 13 23 1022.6 - 0.0 - - - - - - -
03/09:30am 10.5 SW 15 23 1022.2 - 5.0 - - - - - - -
03/09:00am 8.5 SW 16 27 1022.1 - 5.0 - - - - - - -
03/08:39am 9.3 SSW 16 30 1021.6 - 5.0 - - - - - - -
03/08:30am 9.2 SW 11 20 1021.3 - 5.0 - - - - - - -
03/08:00am 8.5 SSW 14 22 1021.0 - 4.8 - - - - - - -
03/07:30am 8.4 SSW 11 19 1020.5 - 4.4 - - - - - - -
03/07:21am 8.7 SW 15 27 1020.5 - 4.4 - - - - - - -
03/07:00am 8.8 SW 14 20 1020.3 - 4.4 - - - - - - -
03/06:38am 10.2 SW 15 29 1019.6 - 4.2 - - - - - - -
03/06:30am 10.2 SW 13 23 1019.4 - 4.2 - - - - - - -
03/06:00am 9.7 SW 15 23 1019.1 - 4.2 - - - - - - -
03/05:30am 10.4 SW 16 28 1018.8 - 4.2 - - - - - - -
03/05:17am 10.4 SW 17 27 1018.5 - 4.2 - - - - - - -
03/05:00am 10.0 SW 14 23 1018.3 - 4.2 - - - - - - -
03/04:34am 9.8 SW 15 25 1018.2 - 4.0 - - - - - - -
03/04:30am 10.2 SW 15 22 1018.0 - 3.8 - - - - - - -
03/04:00am 10.2 SW 13 22 1017.7 - 3.6 - - - - - - -
03/03:30am 11.0 SW 15 26 1017.5 - 3.6 - - - - - - -
03/03:29am 11.0 WSW 15 26 1017.5 - 3.6 - - - - - - -
03/03:00am 10.2 SW 13 22 1017.7 - 3.6 - - - - - - -
03/02:30am 9.4 SW 17 27 1017.7 - 3.6 - - - - - - -
03/02:00am 10.4 WSW 16 26 1017.7 - 2.8 - - - - - - -
03/01:30am 10.6 WSW 15 28 1017.4 - 2.8 - - - - - - -
03/01:08am 11.4 W 16 30 1017.1 - 2.6 - - - - - - -
03/01:00am 11.4 W 15 24 1017.0 - 2.6 - - - - - - -
03/12:30am 11.3 WSW 14 26 1017.0 - 2.6 - - - - - - -
03/12:00am 10.6 WSW 15 28 1017.2 - 2.6 - - - - - - -
 
Date/Time
EST
Temp

°C
Wind Pressure Rain
since 9am
mm
Weather Cloud Vis
km
Sea
Height
m
Swell
Dir
 
Speed
knots
Gust
knots
hPa Trend Height
m
Period
s
Dir
02/11:58pm 10.9 WSW 15 28 1017.2 - 2.6 - - - - - - -
02/11:30pm 10.9 WSW 14 23 1017.0 - 2.6 - - - - - - -
02/11:15pm 11.9 WSW 15 27 1016.9 - 2.6 - - - - - - -
02/11:00pm 11.7 WSW 14 29 1017.0 - 2.6 - - - - - - -
02/10:43pm 11.1 WSW 15 26 1017.0 - 2.4 - - - - - - -
02/10:30pm 10.8 WSW 11 20 1017.1 - 2.4 - - - - - - -
02/10:18pm 10.0 WSW 15 26 1017.1 - 2.4 - - - - - - -
02/10:00pm 10.2 WSW 14 23 1017.0 - 2.4 - - - - - - -
02/09:30pm 11.8 W 18 30 1016.7 - 2.4 - - - - - - -
02/09:06pm 11.8 W 15 26 1016.4 - 2.4 - - - - - - -
02/09:00pm 11.4 W 12 23 1016.4 - 2.4 - - - - - - -
02/08:30pm 10.6 W 14 24 1016.5 - 2.4 - - - - - - -
02/08:10pm 11.1 W 15 26 1016.4 - 2.4 - - - - - - -
02/08:00pm 11.3 W 15 23 1016.3 - 2.4 - - - - - - -
02/07:30pm 11.2 W 14 25 1016.2 - 2.4 - - - - - - -
02/07:00pm 11.0 W 15 26 1015.8 - 2.4 - - - - - - -
02/06:35pm 10.7 WSW 15 27 1015.5 - 2.4 - - - - - - -
02/06:30pm 10.4 W 13 27 1015.4 - 2.4 Recent precip. - - - - - -
02/06:00pm 10.6 WSW 10 17 1015.2 - 2.2 - - - - - - -
02/05:47pm 11.7 WSW 15 26 1015.1 - 2.0 - - - - - - -
02/05:30pm 12.0 W 14 21 1014.9 - 2.0 - - - - - - -
02/05:00pm 11.9 WSW 12 23 1014.8 - 2.0 - - - - - - -
02/04:48pm 11.9 WSW 15 27 1014.8 - 2.0 - - - - - - -
02/04:30pm 11.3 WSW 14 24 1014.7 - 2.0 - - - - - - -
02/04:03pm 12.4 WSW 15 27 1014.4 - 2.0 - - - - - - -
02/04:00pm 12.2 WSW 14 27 1014.5 - 2.0 - - - - - - -
02/03:35pm 11.5 WSW 15 27 1014.6 - 2.0 - - - - - - -
02/03:30pm 12.2 WSW 13 27 1014.5 - 2.0 - - - - - - -
02/03:07pm 12.6 WSW 15 27 1014.1 - 2.0 - - - - - - -
02/03:00pm 12.9 W 13 23 1014.1 - 2.0 - - - - - - -
02/02:32pm 11.9 W 15 29 1013.8 - 2.0 - - - - - - -
02/02:30pm 12.0 W 14 25 1013.8 - 2.0 - - - - - - -
02/02:14pm 11.6 W 15 30 1013.7 - 2.0 - - - - - - -
02/02:00pm 11.9 W 11 21 1013.8 - 1.8 - - - - - - -
02/01:30pm 13.1 WNW 19 31 1013.6 - 0.4 - - - - - - -
02/01:00pm 14.3 WNW 16 27 1014.0 - 0.4 - - - - - - -
02/12:30pm 14.5 WNW 16 26 1014.4 - 0.4 - - - - - - -
02/12:00pm 13.9 WNW 17 29 1014.5 - 0.4 - - - - - - -
02/11:42am 13.9 W 15 25 1014.9 - 0.4 - - - - - - -
02/11:30am 13.4 WNW 17 27 1014.9 - 0.4 - - - - - - -
02/11:03am 12.8 W 17 28 1015.1 - 0.4 - - - - - - -
02/11:00am 12.6 W 18 28 1015.0 - 0.4 - - - - - - -
02/10:30am 12.8 W 18 33 1015.0 - 0.2 - - - - - - -
02/10:15am 12.5 WNW 15 26 1014.8 - 0.2 - - - - - - -
02/10:00am 10.9 W 13 23 1014.8 - 0.2 - - - - - - -
02/09:30am 12.4 WNW 15 26 1014.9 - 0.8 - - - - - - -
02/09:12am 11.5 W 15 25 1014.9 - 0.8 - - - - - - -
02/09:00am 11.3 W 14 22 1014.9 - 0.8 - - - - - - -
02/08:30am 11.2 W 13 22 1014.8 - 0.8 - - - - - - -
02/08:00am 10.1 W 11 23 1014.9 - 0.8 - - - - - - -
02/07:30am 9.8 WNW 12 17 1014.7 - 0.8 - - - - - - -
02/07:00am 9.3 W 10 18 1014.5 - 0.8 - - - - - - -
02/06:30am 9.0 W 13 21 1014.5 - 0.8 Rain - - - - - -
02/06:00am 9.5 W 10 18 1014.4 - 0.4 - - - - - - -
02/05:30am 9.9 W 9 15 1014.6 - 0.4 - - - - - - -
02/05:00am 10.0 W 11 17 1014.8 - 0.4 - - - - - - -
02/04:30am 9.7 WNW 9 15 1014.9 - 0.4 - - - - - - -
02/04:00am 9.1 WNW 9 13 1015.1 - 0.4 - - - - - - -
02/03:30am 9.6 WSW 6 11 1015.7 - 0.0 - - - - - - -
02/03:00am 9.7 WNW 13 23 1015.8 - 0.0 - - - - - - -
02/02:30am 9.6 W 6 10 1015.8 - 0.0 - - - - - - -
02/02:00am 9.9 W 7 15 1016.2 - 0.0 - - - - - - -
02/01:30am 10.7 W 9 15 1016.1 - 0.0 - - - - - - -
02/01:00am 10.7 WSW 6 11 1016.2 - 0.0 - - - - - - -
02/12:30am 10.9 W 8 13 1016.4 - 0.0 - - - - - - -
02/12:00am 10.5 W 6 10 1016.7 - 0.0 - - - - - - -
 
Date/Time
EST
Temp

°C
Wind Pressure Rain
since 9am
mm
Weather Cloud Vis
km
Sea
Height
m
Swell
Dir
 
Speed
knots
Gust
knots
hPa Trend Height
m
Period
s
Dir
01/11:30pm 10.8 W 7 12 1016.8 - 0.0 - - - - - - -
01/11:00pm 10.8 W 6 10 1016.9 - 0.0 - - - - - - -
01/10:30pm 10.4 WNW 6 8 1017.0 - 0.0 - - - - - - -
01/10:00pm 10.4 W 4 5 1017.1 - 0.0 - - - - - - -
01/09:30pm 10.3 W 5 8 1017.0 - 0.0 - - - - - - -
01/09:00pm 9.7 W 3 5 1017.0 - 0.0 - - - - - - -
01/08:30pm 9.6 W 4 5 1016.8 - 0.0 - - - - - - -

Other Formats:

Comma delimited format used in spreadsheet applications
http://www.bom.gov.au/fwo/IDV60701/IDV60701.95816.axf

JavaScript Object Notation format (JSON) in row-major order
http://www.bom.gov.au/fwo/IDV60701/IDV60701.95816.json